sensor_id;sensor_type;location;lat;lon;timestamp;P1;durP1;ratioP1;P2;durP2;ratioP2
67768;SDS011;54569;52.018;5.584;2024-03-17T00:01:54;14.75;;;9.13;;
67768;SDS011;54569;52.018;5.584;2024-03-17T00:04:20;12.15;;;8.57;;
67768;SDS011;54569;52.018;5.584;2024-03-17T00:06:46;14.32;;;8.50;;
67768;SDS011;54569;52.018;5.584;2024-03-17T00:09:12;14.50;;;8.70;;
67768;SDS011;54569;52.018;5.584;2024-03-17T00:11:38;14.27;;;7.93;;
67768;SDS011;54569;52.018;5.584;2024-03-17T00:14:04;11.77;;;8.75;;
67768;SDS011;54569;52.018;5.584;2024-03-17T00:16:30;14.25;;;9.07;;
67768;SDS011;54569;52.018;5.584;2024-03-17T00:18:56;14.50;;;8.68;;
67768;SDS011;54569;52.018;5.584;2024-03-17T00:21:22;16.10;;;9.13;;
67768;SDS011;54569;52.018;5.584;2024-03-17T00:23:48;10.55;;;8.73;;
67768;SDS011;54569;52.018;5.584;2024-03-17T00:26:17;12.00;;;8.23;;
67768;SDS011;54569;52.018;5.584;2024-03-17T00:28:44;11.40;;;8.48;;
67768;SDS011;54569;52.018;5.584;2024-03-17T00:31:13;13.68;;;9.30;;
67768;SDS011;54569;52.018;5.584;2024-03-17T00:33:40;10.02;;;8.23;;
67768;SDS011;54569;52.018;5.584;2024-03-17T00:36:06;14.80;;;7.70;;
67768;SDS011;54569;52.018;5.584;2024-03-17T00:38:32;13.38;;;8.30;;
67768;SDS011;54569;52.018;5.584;2024-03-17T00:40:58;10.95;;;8.13;;
67768;SDS011;54569;52.018;5.584;2024-03-17T00:43:24;13.63;;;7.78;;
67768;SDS011;54569;52.018;5.584;2024-03-17T00:45:53;11.32;;;7.60;;
67768;SDS011;54569;52.018;5.584;2024-03-17T00:48:19;13.25;;;7.95;;
67768;SDS011;54569;52.018;5.584;2024-03-17T00:50:45;12.43;;;7.88;;
67768;SDS011;54569;52.018;5.584;2024-03-17T00:53:11;10.45;;;7.32;;
67768;SDS011;54569;52.018;5.584;2024-03-17T00:55:37;14.10;;;7.57;;
67768;SDS011;54569;52.018;5.584;2024-03-17T00:58:03;11.45;;;7.75;;
67768;SDS011;54569;52.018;5.584;2024-03-17T01:00:29;11.57;;;7.30;;
67768;SDS011;54569;52.018;5.584;2024-03-17T01:02:55;9.95;;;7.30;;
67768;SDS011;54569;52.018;5.584;2024-03-17T01:05:21;8.88;;;7.38;;
67768;SDS011;54569;52.018;5.584;2024-03-17T01:07:47;9.55;;;6.97;;
67768;SDS011;54569;52.018;5.584;2024-03-17T01:10:14;10.82;;;7.43;;
67768;SDS011;54569;52.018;5.584;2024-03-17T01:12:39;10.82;;;7.30;;
67768;SDS011;54569;52.018;5.584;2024-03-17T01:15:06;11.75;;;6.97;;
67768;SDS011;54569;52.018;5.584;2024-03-17T01:17:32;10.80;;;7.55;;
67768;SDS011;54569;52.018;5.584;2024-03-17T01:19:58;8.95;;;6.40;;
67768;SDS011;54569;52.018;5.584;2024-03-17T01:22:24;11.40;;;7.82;;
67768;SDS011;54569;52.018;5.584;2024-03-17T01:24:49;10.77;;;7.68;;
67768;SDS011;54569;52.018;5.584;2024-03-17T01:27:15;9.18;;;8.15;;
67768;SDS011;54569;52.018;5.584;2024-03-17T01:29:44;9.98;;;7.45;;
67768;SDS011;54569;52.018;5.584;2024-03-17T01:32:10;12.75;;;8.02;;
67768;SDS011;54569;52.018;5.584;2024-03-17T01:34:36;11.75;;;7.47;;
67768;SDS011;54569;52.018;5.584;2024-03-17T01:37:05;11.35;;;7.47;;
67768;SDS011;54569;52.018;5.584;2024-03-17T01:39:31;10.50;;;8.02;;
67768;SDS011;54569;52.018;5.584;2024-03-17T01:41:58;12.65;;;8.00;;
67768;SDS011;54569;52.018;5.584;2024-03-17T01:44:26;10.55;;;7.60;;
67768;SDS011;54569;52.018;5.584;2024-03-17T01:46:56;10.75;;;7.25;;
67768;SDS011;54569;52.018;5.584;2024-03-17T01:49:22;12.18;;;7.90;;
67768;SDS011;54569;52.018;5.584;2024-03-17T01:51:49;11.88;;;7.93;;
67768;SDS011;54569;52.018;5.584;2024-03-17T01:54:16;10.45;;;7.40;;
67768;SDS011;54569;52.018;5.584;2024-03-17T01:56:42;10.00;;;7.57;;
67768;SDS011;54569;52.018;5.584;2024-03-17T01:59:09;12.25;;;8.27;;
67768;SDS011;54569;52.018;5.584;2024-03-17T02:01:35;12.98;;;7.70;;
67768;SDS011;54569;52.018;5.584;2024-03-17T02:04:02;9.13;;;7.80;;
67768;SDS011;54569;52.018;5.584;2024-03-17T02:06:28;12.32;;;8.40;;
67768;SDS011;54569;52.018;5.584;2024-03-17T02:08:54;8.05;;;7.22;;
67768;SDS011;54569;52.018;5.584;2024-03-17T02:11:25;10.27;;;7.20;;
67768;SDS011;54569;52.018;5.584;2024-03-17T02:13:55;10.70;;;7.05;;
67768;SDS011;54569;52.018;5.584;2024-03-17T02:16:22;11.98;;;7.60;;
67768;SDS011;54569;52.018;5.584;2024-03-17T02:18:48;11.27;;;7.28;;
67768;SDS011;54569;52.018;5.584;2024-03-17T02:21:15;9.82;;;8.18;;
67768;SDS011;54569;52.018;5.584;2024-03-17T02:23:44;13.38;;;7.63;;
67768;SDS011;54569;52.018;5.584;2024-03-17T02:26:10;8.98;;;7.30;;
67768;SDS011;54569;52.018;5.584;2024-03-17T02:28:39;11.70;;;7.63;;
67768;SDS011;54569;52.018;5.584;2024-03-17T02:31:07;8.95;;;7.30;;
67768;SDS011;54569;52.018;5.584;2024-03-17T02:33:35;9.02;;;6.60;;
67768;SDS011;54569;52.018;5.584;2024-03-17T02:36:00;10.20;;;6.80;;
67768;SDS011;54569;52.018;5.584;2024-03-17T02:38:28;8.75;;;6.65;;
67768;SDS011;54569;52.018;5.584;2024-03-17T02:41:14;9.90;;;6.50;;
67768;SDS011;54569;52.018;5.584;2024-03-17T02:43:41;7.75;;;6.60;;
67768;SDS011;54569;52.018;5.584;2024-03-17T02:46:06;8.27;;;6.40;;
67768;SDS011;54569;52.018;5.584;2024-03-17T02:48:36;10.30;;;6.28;;
67768;SDS011;54569;52.018;5.584;2024-03-17T02:51:06;8.95;;;6.97;;
67768;SDS011;54569;52.018;5.584;2024-03-17T02:53:32;9.63;;;6.43;;
67768;SDS011;54569;52.018;5.584;2024-03-17T02:55:57;8.98;;;6.45;;
67768;SDS011;54569;52.018;5.584;2024-03-17T02:58:23;8.90;;;6.25;;
67768;SDS011;54569;52.018;5.584;2024-03-17T03:00:49;8.40;;;6.22;;
67768;SDS011;54569;52.018;5.584;2024-03-17T03:03:15;11.05;;;6.47;;
67768;SDS011;54569;52.018;5.584;2024-03-17T03:05:40;11.32;;;6.50;;
67768;SDS011;54569;52.018;5.584;2024-03-17T03:08:06;8.95;;;6.20;;
67768;SDS011;54569;52.018;5.584;2024-03-17T03:10:32;8.98;;;6.20;;
67768;SDS011;54569;52.018;5.584;2024-03-17T03:13:00;8.02;;;6.28;;
67768;SDS011;54569;52.018;5.584;2024-03-17T03:15:26;9.32;;;6.50;;
67768;SDS011;54569;52.018;5.584;2024-03-17T03:17:52;8.25;;;6.35;;
67768;SDS011;54569;52.018;5.584;2024-03-17T03:20:18;12.00;;;6.53;;
67768;SDS011;54569;52.018;5.584;2024-03-17T03:22:44;7.95;;;6.00;;
67768;SDS011;54569;52.018;5.584;2024-03-17T03:25:10;8.25;;;6.13;;
67768;SDS011;54569;52.018;5.584;2024-03-17T03:27:36;10.77;;;6.63;;
67768;SDS011;54569;52.018;5.584;2024-03-17T03:30:02;8.43;;;6.13;;
67768;SDS011;54569;52.018;5.584;2024-03-17T03:32:28;7.88;;;6.18;;
67768;SDS011;54569;52.018;5.584;2024-03-17T03:34:54;8.38;;;6.25;;
67768;SDS011;54569;52.018;5.584;2024-03-17T03:37:19;13.73;;;7.07;;
67768;SDS011;54569;52.018;5.584;2024-03-17T03:39:46;11.43;;;6.43;;
67768;SDS011;54569;52.018;5.584;2024-03-17T03:42:11;8.88;;;7.20;;
67768;SDS011;54569;52.018;5.584;2024-03-17T03:44:37;12.00;;;7.35;;
67768;SDS011;54569;52.018;5.584;2024-03-17T03:47:03;10.10;;;7.25;;
67768;SDS011;54569;52.018;5.584;2024-03-17T03:49:29;8.05;;;6.50;;
67768;SDS011;54569;52.018;5.584;2024-03-17T03:51:55;11.65;;;7.75;;
67768;SDS011;54569;52.018;5.584;2024-03-17T03:54:21;8.75;;;7.72;;
67768;SDS011;54569;52.018;5.584;2024-03-17T03:56:46;11.00;;;7.50;;
67768;SDS011;54569;52.018;5.584;2024-03-17T03:59:12;11.27;;;7.30;;
67768;SDS011;54569;52.018;5.584;2024-03-17T04:01:38;13.35;;;7.82;;
67768;SDS011;54569;52.018;5.584;2024-03-17T04:04:04;9.98;;;7.20;;
67768;SDS011;54569;52.018;5.584;2024-03-17T04:06:29;9.85;;;7.55;;
67768;SDS011;54569;52.018;5.584;2024-03-17T04:08:56;14.02;;;7.78;;
67768;SDS011;54569;52.018;5.584;2024-03-17T04:11:22;8.70;;;6.72;;
67768;SDS011;54569;52.018;5.584;2024-03-17T04:13:48;7.95;;;7.00;;
67768;SDS011;54569;52.018;5.584;2024-03-17T04:16:13;8.73;;;7.60;;
67768;SDS011;54569;52.018;5.584;2024-03-17T04:18:40;11.98;;;7.03;;
67768;SDS011;54569;52.018;5.584;2024-03-17T04:21:06;12.38;;;7.50;;
67768;SDS011;54569;52.018;5.584;2024-03-17T04:23:33;8.75;;;6.88;;
67768;SDS011;54569;52.018;5.584;2024-03-17T04:25:59;8.70;;;7.13;;
67768;SDS011;54569;52.018;5.584;2024-03-17T04:28:26;8.90;;;7.43;;
67768;SDS011;54569;52.018;5.584;2024-03-17T04:30:52;9.90;;;7.70;;
67768;SDS011;54569;52.018;5.584;2024-03-17T04:33:18;9.57;;;7.80;;
67768;SDS011;54569;52.018;5.584;2024-03-17T04:35:43;12.40;;;7.90;;
67768;SDS011;54569;52.018;5.584;2024-03-17T04:38:09;8.70;;;7.03;;
67768;SDS011;54569;52.018;5.584;2024-03-17T04:40:41;9.98;;;8.13;;
67768;SDS011;54569;52.018;5.584;2024-03-17T04:43:07;9.32;;;7.78;;
67768;SDS011;54569;52.018;5.584;2024-03-17T04:45:33;11.25;;;7.93;;
67768;SDS011;54569;52.018;5.584;2024-03-17T04:47:59;10.30;;;7.53;;
67768;SDS011;54569;52.018;5.584;2024-03-17T04:50:25;9.57;;;8.35;;
67768;SDS011;54569;52.018;5.584;2024-03-17T04:52:51;11.05;;;7.43;;
67768;SDS011;54569;52.018;5.584;2024-03-17T04:55:17;9.05;;;8.05;;
67768;SDS011;54569;52.018;5.584;2024-03-17T04:57:46;12.82;;;8.38;;
67768;SDS011;54569;52.018;5.584;2024-03-17T05:00:12;12.68;;;8.20;;
67768;SDS011;54569;52.018;5.584;2024-03-17T05:02:39;9.88;;;8.13;;
67768;SDS011;54569;52.018;5.584;2024-03-17T05:05:05;10.15;;;8.07;;
67768;SDS011;54569;52.018;5.584;2024-03-17T05:07:33;10.65;;;8.65;;
67768;SDS011;54569;52.018;5.584;2024-03-17T05:09:59;12.40;;;7.55;;
67768;SDS011;54569;52.018;5.584;2024-03-17T05:12:25;11.27;;;8.75;;
67768;SDS011;54569;52.018;5.584;2024-03-17T05:14:51;11.38;;;8.45;;
67768;SDS011;54569;52.018;5.584;2024-03-17T05:17:17;10.38;;;8.32;;
67768;SDS011;54569;52.018;5.584;2024-03-17T05:19:43;13.80;;;8.45;;
67768;SDS011;54569;52.018;5.584;2024-03-17T05:22:08;10.07;;;8.20;;
67768;SDS011;54569;52.018;5.584;2024-03-17T05:24:35;10.43;;;7.97;;
67768;SDS011;54569;52.018;5.584;2024-03-17T05:27:01;11.27;;;8.73;;
67768;SDS011;54569;52.018;5.584;2024-03-17T05:29:27;12.07;;;8.82;;
67768;SDS011;54569;52.018;5.584;2024-03-17T05:31:53;11.18;;;7.78;;
67768;SDS011;54569;52.018;5.584;2024-03-17T05:34:18;12.50;;;8.68;;
67768;SDS011;54569;52.018;5.584;2024-03-17T05:36:45;9.60;;;8.50;;
67768;SDS011;54569;52.018;5.584;2024-03-17T05:39:12;9.10;;;7.78;;
67768;SDS011;54569;52.018;5.584;2024-03-17T05:41:38;11.07;;;8.18;;
67768;SDS011;54569;52.018;5.584;2024-03-17T05:44:06;9.90;;;7.95;;
67768;SDS011;54569;52.018;5.584;2024-03-17T05:46:32;9.30;;;8.20;;
67768;SDS011;54569;52.018;5.584;2024-03-17T05:48:57;11.18;;;8.77;;
67768;SDS011;54569;52.018;5.584;2024-03-17T05:51:23;9.55;;;8.10;;
67768;SDS011;54569;52.018;5.584;2024-03-17T05:53:52;10.93;;;8.75;;
67768;SDS011;54569;52.018;5.584;2024-03-17T05:56:18;12.57;;;8.68;;
67768;SDS011;54569;52.018;5.584;2024-03-17T05:58:44;12.73;;;9.00;;
67768;SDS011;54569;52.018;5.584;2024-03-17T06:01:10;12.75;;;8.18;;
67768;SDS011;54569;52.018;5.584;2024-03-17T06:03:36;14.32;;;8.95;;
67768;SDS011;54569;52.018;5.584;2024-03-17T06:06:03;9.20;;;8.05;;
67768;SDS011;54569;52.018;5.584;2024-03-17T06:08:30;11.15;;;9.25;;
67768;SDS011;54569;52.018;5.584;2024-03-17T06:10:56;11.82;;;9.15;;
67768;SDS011;54569;52.018;5.584;2024-03-17T06:13:25;11.23;;;8.73;;
67768;SDS011;54569;52.018;5.584;2024-03-17T06:15:51;9.82;;;8.68;;
67768;SDS011;54569;52.018;5.584;2024-03-17T06:18:17;13.98;;;9.13;;
67768;SDS011;54569;52.018;5.584;2024-03-17T06:20:46;10.93;;;8.60;;
67768;SDS011;54569;52.018;5.584;2024-03-17T06:23:16;10.02;;;8.90;;
67768;SDS011;54569;52.018;5.584;2024-03-17T06:25:42;14.68;;;8.70;;
67768;SDS011;54569;52.018;5.584;2024-03-17T06:28:09;9.77;;;8.77;;
67768;SDS011;54569;52.018;5.584;2024-03-17T06:30:41;12.05;;;8.90;;
67768;SDS011;54569;52.018;5.584;2024-03-17T06:33:17;11.40;;;8.80;;
67768;SDS011;54569;52.018;5.584;2024-03-17T06:35:46;9.68;;;8.52;;
67768;SDS011;54569;52.018;5.584;2024-03-17T06:38:12;10.52;;;8.90;;
67768;SDS011;54569;52.018;5.584;2024-03-17T06:40:38;10.73;;;9.25;;
67768;SDS011;54569;52.018;5.584;2024-03-17T06:43:04;11.98;;;8.63;;
67768;SDS011;54569;52.018;5.584;2024-03-17T06:45:31;11.60;;;9.52;;
67768;SDS011;54569;52.018;5.584;2024-03-17T06:47:57;10.60;;;8.50;;
67768;SDS011;54569;52.018;5.584;2024-03-17T06:50:23;10.00;;;7.72;;
67768;SDS011;54569;52.018;5.584;2024-03-17T06:52:49;11.50;;;9.32;;
67768;SDS011;54569;52.018;5.584;2024-03-17T06:55:17;13.35;;;9.10;;
67768;SDS011;54569;52.018;5.584;2024-03-17T06:57:43;10.77;;;9.10;;
67768;SDS011;54569;52.018;5.584;2024-03-17T07:00:10;12.15;;;9.38;;
67768;SDS011;54569;52.018;5.584;2024-03-17T07:02:39;11.55;;;8.63;;
67768;SDS011;54569;52.018;5.584;2024-03-17T07:05:06;11.35;;;9.55;;
67768;SDS011;54569;52.018;5.584;2024-03-17T07:07:33;11.45;;;8.15;;
67768;SDS011;54569;52.018;5.584;2024-03-17T07:09:59;9.80;;;8.55;;
67768;SDS011;54569;52.018;5.584;2024-03-17T07:12:30;11.30;;;8.23;;
67768;SDS011;54569;52.018;5.584;2024-03-17T07:14:55;11.27;;;8.60;;
67768;SDS011;54569;52.018;5.584;2024-03-17T07:17:21;10.23;;;8.68;;
67768;SDS011;54569;52.018;5.584;2024-03-17T07:19:50;11.88;;;9.35;;
67768;SDS011;54569;52.018;5.584;2024-03-17T07:22:16;10.55;;;8.50;;
67768;SDS011;54569;52.018;5.584;2024-03-17T07:24:43;11.68;;;8.85;;
67768;SDS011;54569;52.018;5.584;2024-03-17T07:27:09;9.35;;;8.40;;
67768;SDS011;54569;52.018;5.584;2024-03-17T07:29:39;11.05;;;8.70;;
67768;SDS011;54569;52.018;5.584;2024-03-17T07:32:05;10.18;;;8.90;;
67768;SDS011;54569;52.018;5.584;2024-03-17T07:34:31;11.43;;;9.95;;
67768;SDS011;54569;52.018;5.584;2024-03-17T07:36:57;15.30;;;9.85;;
67768;SDS011;54569;52.018;5.584;2024-03-17T07:39:28;14.50;;;10.23;;
67768;SDS011;54569;52.018;5.584;2024-03-17T07:41:58;16.67;;;10.73;;
67768;SDS011;54569;52.018;5.584;2024-03-17T07:44:24;11.05;;;9.68;;
67768;SDS011;54569;52.018;5.584;2024-03-17T07:46:51;11.07;;;9.60;;
67768;SDS011;54569;52.018;5.584;2024-03-17T07:49:19;10.63;;;9.52;;
67768;SDS011;54569;52.018;5.584;2024-03-17T07:51:44;9.63;;;8.55;;
67768;SDS011;54569;52.018;5.584;2024-03-17T07:54:10;10.23;;;8.57;;
67768;SDS011;54569;52.018;5.584;2024-03-17T07:56:37;9.45;;;8.55;;
67768;SDS011;54569;52.018;5.584;2024-03-17T07:59:04;9.57;;;8.57;;
67768;SDS011;54569;52.018;5.584;2024-03-17T08:01:37;9.48;;;8.48;;
67768;SDS011;54569;52.018;5.584;2024-03-17T08:04:02;10.00;;;8.27;;
67768;SDS011;54569;52.018;5.584;2024-03-17T08:06:28;8.02;;;7.22;;
67768;SDS011;54569;52.018;5.584;2024-03-17T08:08:54;7.53;;;6.68;;
67768;SDS011;54569;52.018;5.584;2024-03-17T08:11:20;7.65;;;6.85;;
67768;SDS011;54569;52.018;5.584;2024-03-17T08:13:46;7.57;;;6.88;;
67768;SDS011;54569;52.018;5.584;2024-03-17T08:16:12;7.30;;;6.60;;
67768;SDS011;54569;52.018;5.584;2024-03-17T08:18:39;8.10;;;6.78;;
67768;SDS011;54569;52.018;5.584;2024-03-17T08:21:05;7.60;;;6.45;;
67768;SDS011;54569;52.018;5.584;2024-03-17T08:23:31;6.57;;;6.07;;
67768;SDS011;54569;52.018;5.584;2024-03-17T08:26:04;10.95;;;6.95;;
67768;SDS011;54569;52.018;5.584;2024-03-17T08:28:30;7.65;;;6.93;;
67768;SDS011;54569;52.018;5.584;2024-03-17T08:30:57;9.07;;;6.28;;
67768;SDS011;54569;52.018;5.584;2024-03-17T08:33:23;7.47;;;6.75;;
67768;SDS011;54569;52.018;5.584;2024-03-17T08:38:22;8.52;;;6.88;;
67768;SDS011;54569;52.018;5.584;2024-03-17T08:40:52;7.60;;;6.80;;
67768;SDS011;54569;52.018;5.584;2024-03-17T08:43:18;10.10;;;6.53;;
67768;SDS011;54569;52.018;5.584;2024-03-17T08:45:45;10.70;;;7.40;;
67768;SDS011;54569;52.018;5.584;2024-03-17T08:48:19;7.35;;;6.35;;
67768;SDS011;54569;52.018;5.584;2024-03-17T08:50:51;7.65;;;6.85;;
67768;SDS011;54569;52.018;5.584;2024-03-17T08:53:20;8.93;;;7.32;;
67768;SDS011;54569;52.018;5.584;2024-03-17T08:55:49;9.18;;;6.63;;
67768;SDS011;54569;52.018;5.584;2024-03-17T08:58:15;11.23;;;6.90;;
67768;SDS011;54569;52.018;5.584;2024-03-17T09:00:42;8.63;;;7.50;;
67768;SDS011;54569;52.018;5.584;2024-03-17T09:03:08;8.52;;;6.80;;
67768;SDS011;54569;52.018;5.584;2024-03-17T09:05:35;9.23;;;7.57;;
67768;SDS011;54569;52.018;5.584;2024-03-17T09:08:02;8.55;;;6.65;;
67768;SDS011;54569;52.018;5.584;2024-03-17T09:10:28;7.78;;;6.38;;
67768;SDS011;54569;52.018;5.584;2024-03-17T09:12:54;6.75;;;5.97;;
67768;SDS011;54569;52.018;5.584;2024-03-17T09:15:19;7.35;;;6.65;;
67768;SDS011;54569;52.018;5.584;2024-03-17T09:17:46;7.68;;;6.90;;
67768;SDS011;54569;52.018;5.584;2024-03-17T09:20:13;7.63;;;5.93;;
67768;SDS011;54569;52.018;5.584;2024-03-17T09:22:43;11.02;;;6.25;;
67768;SDS011;54569;52.018;5.584;2024-03-17T09:25:08;7.93;;;6.20;;
67768;SDS011;54569;52.018;5.584;2024-03-17T09:27:35;7.60;;;6.18;;
67768;SDS011;54569;52.018;5.584;2024-03-17T09:30:04;8.88;;;6.60;;
67768;SDS011;54569;52.018;5.584;2024-03-17T09:32:34;7.25;;;6.45;;
67768;SDS011;54569;52.018;5.584;2024-03-17T09:35:00;7.50;;;6.75;;
67768;SDS011;54569;52.018;5.584;2024-03-17T09:37:26;8.55;;;6.95;;
67768;SDS011;54569;52.018;5.584;2024-03-17T09:39:53;8.07;;;6.95;;
67768;SDS011;54569;52.018;5.584;2024-03-17T09:42:22;9.48;;;7.10;;
67768;SDS011;54569;52.018;5.584;2024-03-17T09:44:49;7.85;;;6.45;;
67768;SDS011;54569;52.018;5.584;2024-03-17T09:47:21;7.93;;;5.90;;
67768;SDS011;54569;52.018;5.584;2024-03-17T09:49:47;6.75;;;5.85;;
67768;SDS011;54569;52.018;5.584;2024-03-17T09:52:35;6.70;;;5.90;;
67768;SDS011;54569;52.018;5.584;2024-03-17T09:55:01;6.20;;;5.60;;
67768;SDS011;54569;52.018;5.584;2024-03-17T09:57:35;7.05;;;5.70;;
67768;SDS011;54569;52.018;5.584;2024-03-17T10:00:04;8.43;;;6.22;;
67768;SDS011;54569;52.018;5.584;2024-03-17T10:02:47;7.60;;;5.90;;
67768;SDS011;54569;52.018;5.584;2024-03-17T10:05:19;6.53;;;5.93;;
67768;SDS011;54569;52.018;5.584;2024-03-17T10:07:46;7.60;;;5.75;;
67768;SDS011;54569;52.018;5.584;2024-03-17T10:10:15;6.05;;;5.45;;
67768;SDS011;54569;52.018;5.584;2024-03-17T10:12:43;6.63;;;5.70;;
67768;SDS011;54569;52.018;5.584;2024-03-17T10:15:14;6.18;;;5.65;;
67768;SDS011;54569;52.018;5.584;2024-03-17T10:17:39;6.00;;;5.35;;
67768;SDS011;54569;52.018;5.584;2024-03-17T10:25:43;7.55;;;5.40;;
67768;SDS011;54569;52.018;5.584;2024-03-17T10:28:10;6.88;;;6.00;;
67768;SDS011;54569;52.018;5.584;2024-03-17T10:30:37;6.93;;;5.93;;
67768;SDS011;54569;52.018;5.584;2024-03-17T10:33:03;7.82;;;6.57;;
67768;SDS011;54569;52.018;5.584;2024-03-17T10:35:32;6.35;;;5.75;;
67768;SDS011;54569;52.018;5.584;2024-03-17T10:38:00;7.25;;;6.55;;
67768;SDS011;54569;52.018;5.584;2024-03-17T10:40:28;6.43;;;5.82;;
67768;SDS011;54569;52.018;5.584;2024-03-17T10:42:55;6.30;;;5.43;;
67768;SDS011;54569;52.018;5.584;2024-03-17T10:45:22;6.57;;;5.93;;
67768;SDS011;54569;52.018;5.584;2024-03-17T10:47:50;8.40;;;6.57;;
67768;SDS011;54569;52.018;5.584;2024-03-17T10:50:20;8.15;;;6.35;;
67768;SDS011;54569;52.018;5.584;2024-03-17T10:52:48;6.63;;;5.88;;
67768;SDS011;54569;52.018;5.584;2024-03-17T10:55:25;8.02;;;6.30;;
67768;SDS011;54569;52.018;5.584;2024-03-17T10:57:54;7.28;;;5.85;;
67768;SDS011;54569;52.018;5.584;2024-03-17T11:00:23;7.53;;;6.35;;
67768;SDS011;54569;52.018;5.584;2024-03-17T11:02:53;6.95;;;5.80;;
67768;SDS011;54569;52.018;5.584;2024-03-17T11:05:22;8.68;;;6.03;;
67768;SDS011;54569;52.018;5.584;2024-03-17T11:07:52;8.55;;;6.43;;
67768;SDS011;54569;52.018;5.584;2024-03-17T11:10:23;7.15;;;6.15;;
67768;SDS011;54569;52.018;5.584;2024-03-17T11:12:55;6.10;;;5.57;;
67768;SDS011;54569;52.018;5.584;2024-03-17T11:20:36;6.93;;;5.40;;
67768;SDS011;54569;52.018;5.584;2024-03-17T11:23:04;6.53;;;5.75;;
67768;SDS011;54569;52.018;5.584;2024-03-17T11:25:39;7.47;;;5.82;;
67768;SDS011;54569;52.018;5.584;2024-03-17T11:28:09;7.93;;;5.45;;
67768;SDS011;54569;52.018;5.584;2024-03-17T11:38:51;7.03;;;5.60;;
67768;SDS011;54569;52.018;5.584;2024-03-17T11:49:27;6.00;;;5.32;;
67768;SDS011;54569;52.018;5.584;2024-03-17T11:51:59;6.50;;;5.37;;
67768;SDS011;54569;52.018;5.584;2024-03-17T11:54:32;7.70;;;5.70;;
67768;SDS011;54569;52.018;5.584;2024-03-17T11:57:06;6.05;;;5.32;;
67768;SDS011;54569;52.018;5.584;2024-03-17T11:59:33;6.70;;;5.95;;
67768;SDS011;54569;52.018;5.584;2024-03-17T12:01:59;8.93;;;5.93;;
67768;SDS011;54569;52.018;5.584;2024-03-17T12:04:25;7.20;;;5.75;;
67768;SDS011;54569;52.018;5.584;2024-03-17T12:09:18;7.28;;;6.30;;
67768;SDS011;54569;52.018;5.584;2024-03-17T12:11:59;7.53;;;6.20;;
67768;SDS011;54569;52.018;5.584;2024-03-17T12:14:26;8.60;;;6.32;;
67768;SDS011;54569;52.018;5.584;2024-03-17T12:16:55;6.95;;;6.25;;
67768;SDS011;54569;52.018;5.584;2024-03-17T12:19:22;7.82;;;6.82;;
67768;SDS011;54569;52.018;5.584;2024-03-17T12:21:50;6.82;;;6.13;;
67768;SDS011;54569;52.018;5.584;2024-03-17T12:24:23;8.30;;;6.32;;
67768;SDS011;54569;52.018;5.584;2024-03-17T12:26:51;7.25;;;6.32;;
67768;SDS011;54569;52.018;5.584;2024-03-17T12:34:22;9.85;;;6.68;;
67768;SDS011;54569;52.018;5.584;2024-03-17T12:36:50;7.75;;;6.43;;
67768;SDS011;54569;52.018;5.584;2024-03-17T12:39:20;6.47;;;5.97;;
67768;SDS011;54569;52.018;5.584;2024-03-17T12:42:03;8.40;;;6.60;;
67768;SDS011;54569;52.018;5.584;2024-03-17T12:44:35;7.03;;;6.20;;
67768;SDS011;54569;52.018;5.584;2024-03-17T12:47:01;8.23;;;7.00;;
67768;SDS011;54569;52.018;5.584;2024-03-17T12:49:29;6.80;;;6.20;;
67768;SDS011;54569;52.018;5.584;2024-03-17T12:51:56;9.50;;;6.57;;
67768;SDS011;54569;52.018;5.584;2024-03-17T12:54:23;7.78;;;6.65;;
67768;SDS011;54569;52.018;5.584;2024-03-17T12:56:50;9.40;;;6.25;;
67768;SDS011;54569;52.018;5.584;2024-03-17T12:59:36;7.20;;;6.47;;
67768;SDS011;54569;52.018;5.584;2024-03-17T13:02:41;7.15;;;6.47;;
67768;SDS011;54569;52.018;5.584;2024-03-17T13:05:13;9.32;;;6.75;;
67768;SDS011;54569;52.018;5.584;2024-03-17T13:07:43;8.50;;;6.53;;
67768;SDS011;54569;52.018;5.584;2024-03-17T13:10:13;8.48;;;7.05;;
67768;SDS011;54569;52.018;5.584;2024-03-17T13:12:41;7.20;;;6.22;;
67768;SDS011;54569;52.018;5.584;2024-03-17T13:15:14;9.43;;;6.65;;
67768;SDS011;54569;52.018;5.584;2024-03-17T13:17:41;6.88;;;6.18;;
67768;SDS011;54569;52.018;5.584;2024-03-17T13:20:14;7.32;;;6.50;;
67768;SDS011;54569;52.018;5.584;2024-03-17T13:22:44;7.30;;;6.67;;
67768;SDS011;54569;52.018;5.584;2024-03-17T13:25:14;7.97;;;6.50;;
67768;SDS011;54569;52.018;5.584;2024-03-17T13:27:42;8.52;;;7.07;;
67768;SDS011;54569;52.018;5.584;2024-03-17T13:30:08;7.57;;;6.88;;
67768;SDS011;54569;52.018;5.584;2024-03-17T13:32:35;8.05;;;6.97;;
67768;SDS011;54569;52.018;5.584;2024-03-17T13:35:01;7.65;;;6.82;;
67768;SDS011;54569;52.018;5.584;2024-03-17T13:37:27;8.45;;;6.50;;
67768;SDS011;54569;52.018;5.584;2024-03-17T13:39:53;9.30;;;6.45;;
67768;SDS011;54569;52.018;5.584;2024-03-17T13:42:19;7.85;;;7.05;;
67768;SDS011;54569;52.018;5.584;2024-03-17T13:44:45;7.82;;;6.72;;
67768;SDS011;54569;52.018;5.584;2024-03-17T13:47:11;7.90;;;6.70;;
67768;SDS011;54569;52.018;5.584;2024-03-17T13:49:39;7.88;;;6.90;;
67768;SDS011;54569;52.018;5.584;2024-03-17T13:52:05;7.63;;;6.78;;
67768;SDS011;54569;52.018;5.584;2024-03-17T13:54:31;8.38;;;6.85;;
67768;SDS011;54569;52.018;5.584;2024-03-17T13:56:57;10.70;;;7.00;;
67768;SDS011;54569;52.018;5.584;2024-03-17T13:59:23;8.70;;;7.15;;
67768;SDS011;54569;52.018;5.584;2024-03-17T14:01:52;8.60;;;6.82;;
67768;SDS011;54569;52.018;5.584;2024-03-17T14:04:18;7.72;;;6.75;;
67768;SDS011;54569;52.018;5.584;2024-03-17T14:06:47;7.63;;;6.93;;
67768;SDS011;54569;52.018;5.584;2024-03-17T14:09:14;9.48;;;8.10;;
67768;SDS011;54569;52.018;5.584;2024-03-17T14:11:44;10.32;;;7.50;;
67768;SDS011;54569;52.018;5.584;2024-03-17T14:14:11;12.23;;;7.30;;
67768;SDS011;54569;52.018;5.584;2024-03-17T14:16:37;7.30;;;6.22;;
67768;SDS011;54569;52.018;5.584;2024-03-17T14:19:05;8.38;;;7.20;;
67768;SDS011;54569;52.018;5.584;2024-03-17T14:21:31;8.93;;;7.07;;
67768;SDS011;54569;52.018;5.584;2024-03-17T14:23:57;7.65;;;6.53;;
67768;SDS011;54569;52.018;5.584;2024-03-17T14:26:24;7.55;;;6.85;;
67768;SDS011;54569;52.018;5.584;2024-03-17T14:28:50;7.22;;;6.50;;
67768;SDS011;54569;52.018;5.584;2024-03-17T14:31:16;7.28;;;6.57;;
67768;SDS011;54569;52.018;5.584;2024-03-17T14:33:43;7.88;;;5.85;;
67768;SDS011;54569;52.018;5.584;2024-03-17T14:36:09;6.53;;;5.90;;
67768;SDS011;54569;52.018;5.584;2024-03-17T14:38:35;7.88;;;7.07;;
67768;SDS011;54569;52.018;5.584;2024-03-17T14:41:01;9.65;;;7.22;;
67768;SDS011;54569;52.018;5.584;2024-03-17T14:43:29;8.02;;;6.05;;
67768;SDS011;54569;52.018;5.584;2024-03-17T14:45:55;8.10;;;5.95;;
67768;SDS011;54569;52.018;5.584;2024-03-17T14:48:22;7.30;;;5.75;;
67768;SDS011;54569;52.018;5.584;2024-03-17T14:50:48;6.30;;;5.75;;
67768;SDS011;54569;52.018;5.584;2024-03-17T14:53:14;6.20;;;5.60;;
67768;SDS011;54569;52.018;5.584;2024-03-17T14:55:40;6.68;;;5.40;;
67768;SDS011;54569;52.018;5.584;2024-03-17T14:58:08;7.30;;;5.50;;
67768;SDS011;54569;52.018;5.584;2024-03-17T15:00:35;7.35;;;5.43;;
67768;SDS011;54569;52.018;5.584;2024-03-17T15:03:01;6.22;;;5.43;;
67768;SDS011;54569;52.018;5.584;2024-03-17T15:05:27;7.68;;;5.60;;
67768;SDS011;54569;52.018;5.584;2024-03-17T15:07:52;6.22;;;5.60;;
67768;SDS011;54569;52.018;5.584;2024-03-17T15:10:19;6.03;;;5.38;;
67768;SDS011;54569;52.018;5.584;2024-03-17T15:12:49;7.28;;;5.78;;
67768;SDS011;54569;52.018;5.584;2024-03-17T15:15:15;6.20;;;5.30;;
67768;SDS011;54569;52.018;5.584;2024-03-17T15:17:42;6.22;;;5.35;;
67768;SDS011;54569;52.018;5.584;2024-03-17T15:20:10;7.38;;;5.70;;
67768;SDS011;54569;52.018;5.584;2024-03-17T15:22:44;6.78;;;5.72;;